createdAt,value
2018-09-21T00:01:47.763Z,101426.03
2018-09-21T00:04:16.706Z,101419.94
2018-09-21T00:06:45.626Z,101424.93
2018-09-21T00:09:14.648Z,101414.64
2018-09-21T00:11:43.552Z,101420.41
2018-09-21T00:14:12.462Z,101421.50
2018-09-21T00:16:41.430Z,101422.67
2018-09-21T00:19:10.371Z,101429.49
2018-09-21T00:21:39.275Z,101421.39
2018-09-21T00:24:08.223Z,101421.62
2018-09-21T00:26:37.141Z,101415.19
2018-09-21T00:29:06.055Z,101428.80
2018-09-21T00:31:35.024Z,101430.37
2018-09-21T00:34:03.958Z,101427.99
2018-09-21T00:36:32.866Z,101425.11
2018-09-21T00:39:01.900Z,101426.20
2018-09-21T00:41:30.842Z,101418.95
2018-09-21T00:43:59.775Z,101408.07
2018-09-21T00:46:28.735Z,101410.20
2018-09-21T00:48:57.632Z,101408.73
2018-09-21T00:51:26.543Z,101406.43
2018-09-21T00:53:56.816Z,101410.59
2018-09-21T00:56:25.605Z,101403.29
2018-09-21T00:58:54.763Z,101403.75
2018-09-21T01:01:23.769Z,101406.86
2018-09-21T01:03:52.606Z,101407.70
2018-09-21T01:06:21.444Z,101406.16
2018-09-21T01:08:50.330Z,101403.29
2018-09-21T01:11:19.182Z,101405.43
2018-09-21T01:13:48.030Z,101404.59
2018-09-21T01:16:16.899Z,101400.05
2018-09-21T01:18:45.717Z,101398.24
2018-09-21T01:21:14.562Z,101392.03
2018-09-21T01:23:43.463Z,101393.98
2018-09-21T01:26:12.359Z,101400.59
2018-09-21T01:28:41.239Z,101399.28
2018-09-21T01:31:10.122Z,101400.60
2018-09-21T01:33:38.947Z,101397.39
2018-09-21T01:36:07.829Z,101402.17
2018-09-21T01:38:36.703Z,101402.65
2018-09-21T01:41:05.553Z,101402.91
2018-09-21T01:43:34.382Z,101404.58
2018-09-21T01:46:04.826Z,101402.17
2018-09-21T01:48:33.653Z,101402.86
2018-09-21T01:51:02.803Z,101408.27
2018-09-21T01:53:32.494Z,101406.98
2018-09-21T01:56:01.310Z,101403.77
2018-09-21T01:58:30.146Z,101404.36
2018-09-21T02:01:00.217Z,101396.88
2018-09-21T02:03:29.017Z,101408.08
2018-09-21T02:05:57.857Z,101415.59
2018-09-21T02:08:26.646Z,101411.31
2018-09-21T02:10:55.547Z,101409.04
2018-09-21T02:13:24.458Z,101413.33
2018-09-21T02:15:53.414Z,101417.13
2018-09-21T02:18:22.245Z,101413.41
2018-09-21T02:20:51.108Z,101409.45
2018-09-21T02:23:19.946Z,101414.22
2018-09-21T02:25:48.794Z,101408.47
2018-09-21T02:28:17.630Z,101411.56
2018-09-21T02:30:46.479Z,101410.59
2018-09-21T02:33:15.362Z,101421.15
2018-09-21T02:35:44.187Z,101418.86
2018-09-21T02:38:12.993Z,101421.65
2018-09-21T02:40:43.112Z,101417.44
2018-09-21T02:43:11.929Z,101421.52
2018-09-21T02:45:40.753Z,101425.20
2018-09-21T02:48:09.590Z,101420.95
2018-09-21T02:50:38.388Z,101426.16
2018-09-21T02:53:07.227Z,101420.77
2018-09-21T02:55:36.116Z,101425.34
2018-09-21T02:58:05.026Z,101423.75
2018-09-21T03:00:33.959Z,101422.69
2018-09-21T03:03:04.153Z,101420.81
2018-09-21T03:05:33.109Z,101416.61
2018-09-21T03:08:01.968Z,101423.70
2018-09-21T03:10:32.065Z,101423.27
2018-09-21T03:13:01.173Z,101422.20
2018-09-21T03:15:30.027Z,101423.33
2018-09-21T03:17:58.854Z,101431.42
2018-09-21T03:20:29.092Z,101428.19
2018-09-21T03:22:57.986Z,101427.53
2018-09-21T03:25:26.858Z,101434.81
2018-09-21T03:27:55.741Z,101435.94
2018-09-21T03:30:24.664Z,101435.45
2018-09-21T03:32:53.479Z,101430.48
2018-09-21T03:35:22.323Z,101428.45
2018-09-21T03:37:52.530Z,101433.70
2018-09-21T03:40:21.472Z,101433.45
2018-09-21T03:42:50.505Z,101439.41
2018-09-21T03:45:20.661Z,101435.83
2018-09-21T03:47:49.494Z,101435.12
2018-09-21T03:50:19.677Z,101436.81
2018-09-21T03:52:48.514Z,101440.87
2018-09-21T03:55:17.363Z,101436.75
2018-09-21T03:57:46.317Z,101434.84
2018-09-21T04:00:15.138Z,101406.81
2018-09-21T04:02:43.989Z,101441.20
2018-09-21T04:05:14.213Z,101438.20
2018-09-21T04:07:43.069Z,101437.06
2018-09-21T04:10:11.887Z,101438.75
2018-09-21T04:12:42.095Z,101445.41
2018-09-21T04:15:10.976Z,101447.73
2018-09-21T04:17:39.761Z,101447.02
2018-09-21T04:20:09.986Z,101440.85
2018-09-21T04:22:38.945Z,101442.02
2018-09-21T04:25:09.128Z,101444.31
2018-09-21T04:27:42.066Z,101444.09
2018-09-21T04:32:34.075Z,101451.76
2018-09-21T04:35:02.936Z,101449.05
2018-09-21T04:37:31.754Z,101450.52
2018-09-21T04:40:00.606Z,101445.55
2018-09-21T04:42:29.495Z,101450.70
2018-09-21T04:44:58.367Z,101449.97
2018-09-21T04:47:28.321Z,101446.21
2018-09-21T04:49:57.253Z,101448.62
2018-09-21T04:52:26.099Z,101453.63
2018-09-21T04:54:54.976Z,101451.43
2018-09-21T04:57:23.840Z,101451.46
2018-09-21T04:59:52.690Z,101458.88
2018-09-21T05:02:21.509Z,101456.38
2018-09-21T05:04:50.395Z,101457.20
2018-09-21T05:07:19.180Z,101459.48
2018-09-21T05:09:48.007Z,101464.63
2018-09-21T05:12:17.022Z,101459.98
2018-09-21T05:14:46.586Z,101459.89
2018-09-21T05:17:15.477Z,101453.68
2018-09-21T05:19:44.401Z,101459.86
2018-09-21T05:22:13.406Z,101455.55
2018-09-21T05:24:48.437Z,101457.33
2018-09-21T05:27:17.322Z,101460.52
2018-09-21T05:29:46.168Z,101451.78
2018-09-21T05:32:15.075Z,101452.22
2018-09-21T05:34:44.095Z,101461.08
2018-09-21T05:37:12.774Z,101462.72
2018-09-21T05:39:41.582Z,101460.41
2018-09-21T05:42:10.442Z,101454.70
2018-09-21T05:44:39.281Z,101455.34
2018-09-21T05:47:08.350Z,101458.54
2018-09-21T05:49:37.165Z,101452.45
2018-09-21T05:52:06.413Z,101456.40
2018-09-21T05:54:35.297Z,101460.05
2018-09-21T05:57:04.109Z,101460.65
2018-09-21T05:59:33.005Z,101461.40
2018-09-21T06:02:01.889Z,101463.03
2018-09-21T06:04:30.706Z,101458.42
2018-09-21T06:06:59.715Z,101460.27
2018-09-21T06:09:28.511Z,101463.37
2018-09-21T06:11:57.319Z,101464.77
2018-09-21T06:14:26.196Z,101462.20
2018-09-21T06:16:55.277Z,101462.97
2018-09-21T06:19:24.124Z,101468.28
2018-09-21T06:21:52.897Z,101468.21
2018-09-21T06:24:21.796Z,101464.19
2018-09-21T06:26:50.635Z,101466.48
2018-09-21T06:29:19.581Z,101471.29
2018-09-21T06:31:48.529Z,101467.25
2018-09-21T06:34:18.597Z,101467.57
2018-09-21T06:36:47.587Z,101468.77
2018-09-21T06:39:16.422Z,101467.02
2018-09-21T06:41:45.337Z,101465.92
2018-09-21T06:44:14.150Z,101471.46
2018-09-21T06:46:42.966Z,101477.73
2018-09-21T06:49:13.129Z,101476.38
2018-09-21T06:51:41.965Z,101480.67
2018-09-21T06:54:10.824Z,101476.97
2018-09-21T06:56:39.671Z,101475.60
2018-09-21T06:59:08.584Z,101475.72
2018-09-21T07:01:37.594Z,101481.94
2018-09-21T07:04:06.403Z,101487.11
2018-09-21T07:06:35.245Z,101482.19
2018-09-21T07:09:05.006Z,101482.28
2018-09-21T07:11:33.828Z,101472.42
2018-09-21T07:14:02.661Z,101479.26
2018-09-21T07:16:32.973Z,101475.66
2018-09-21T07:19:01.833Z,101476.20
2018-09-21T07:21:30.788Z,101479.89
2018-09-21T07:23:59.626Z,101479.44
2018-09-21T07:26:28.544Z,101479.05
2018-09-21T07:28:58.785Z,101470.66
2018-09-21T07:31:27.765Z,101476.92
2018-09-21T07:33:56.654Z,101478.61
2018-09-21T07:36:26.015Z,101475.11
2018-09-21T07:38:54.834Z,101472.64
2018-09-21T07:41:24.981Z,101478.05
2018-09-21T07:43:54.134Z,101478.73
2018-09-21T07:46:23.025Z,101480.45
2018-09-21T07:48:51.826Z,101483.69
2018-09-21T07:51:26.794Z,101481.45
2018-09-21T07:53:55.625Z,101485.88
2018-09-21T07:56:24.441Z,101479.95
2018-09-21T07:58:53.385Z,101480.14
2018-09-21T08:01:22.348Z,101486.45
2018-09-21T08:03:51.157Z,101481.01
2018-09-21T08:06:20.065Z,101481.99
2018-09-21T08:08:48.876Z,101477.66
2018-09-21T08:11:17.992Z,101479.34
2018-09-21T08:13:46.854Z,101475.36
2018-09-21T08:16:15.690Z,101471.53
2018-09-21T08:18:44.530Z,101472.86
2018-09-21T08:21:14.942Z,101471.72
2018-09-21T08:23:43.741Z,101471.41
2018-09-21T08:26:12.535Z,101470.09
2018-09-21T08:28:42.629Z,101474.03
2018-09-21T08:31:11.543Z,101468.88
2018-09-21T08:33:40.345Z,101469.03
2018-09-21T08:36:09.230Z,101474.01
2018-09-21T08:38:38.042Z,101469.89
2018-09-21T08:41:07.330Z,101467.73
2018-09-21T08:43:37.413Z,101474.50
2018-09-21T08:46:06.225Z,101465.88
2018-09-21T08:48:35.023Z,101466.72
2018-09-21T08:51:05.394Z,101463.38
2018-09-21T08:53:34.363Z,101458.92
2018-09-21T08:56:03.192Z,101458.73
2018-09-21T08:58:33.266Z,101467.34
2018-09-21T09:01:02.073Z,101455.76
2018-09-21T09:03:30.940Z,101450.95
2018-09-21T09:05:59.804Z,101455.59
2018-09-21T09:08:28.623Z,101453.96
2018-09-21T09:10:57.460Z,101451.80
2018-09-21T09:13:26.397Z,101449.98
2018-09-21T09:15:55.355Z,101449.19
2018-09-21T09:18:24.240Z,101445.84
2018-09-21T09:20:53.098Z,101452.66
2018-09-21T09:23:21.887Z,101449.18
2018-09-21T09:25:50.725Z,101448.84
2018-09-21T09:28:19.578Z,101441.19
2018-09-21T09:30:48.491Z,101436.87
2018-09-21T09:33:17.304Z,101439.03
2018-09-21T09:35:46.249Z,101435.72
2018-09-21T09:38:15.111Z,101439.55
2018-09-21T09:40:44.078Z,101435.55
2018-09-21T09:43:14.644Z,101428.91
2018-09-21T09:45:43.709Z,101438.52
2018-09-21T09:48:12.641Z,101436.48
2018-09-21T09:50:42.986Z,101439.12
2018-09-21T09:53:11.851Z,101442.12
2018-09-21T09:55:40.801Z,101439.47
2018-09-21T09:58:09.839Z,101442.27
2018-09-21T10:00:43.706Z,101432.80
2018-09-21T10:03:12.713Z,101430.31
2018-09-21T10:05:42.991Z,101429.47
2018-09-21T10:08:12.969Z,101427.34
2018-09-21T10:10:42.213Z,101428.36
2018-09-21T10:13:11.607Z,101434.95
2018-09-21T10:15:40.668Z,101433.11
2018-09-21T10:18:09.839Z,101423.48
2018-09-21T10:20:38.909Z,101427.94
2018-09-21T10:23:07.959Z,101427.09
2018-09-21T10:25:38.256Z,101436.59
2018-09-21T10:28:07.480Z,101431.73
2018-09-21T10:30:36.385Z,101423.41
2018-09-21T10:33:06.623Z,101425.27
2018-09-21T10:35:35.585Z,101425.60
2018-09-21T10:38:04.493Z,101425.31
2018-09-21T10:40:34.695Z,101422.77
2018-09-21T10:43:05.070Z,101432.13
2018-09-21T10:45:36.190Z,101423.72
2018-09-21T10:48:05.382Z,101423.32
2018-09-21T10:50:35.767Z,101421.20
2018-09-21T10:53:04.752Z,101410.88
2018-09-21T10:55:33.786Z,101416.48
2018-09-21T10:58:04.134Z,101405.20
2018-09-21T11:00:33.102Z,101398.12
2018-09-21T11:03:02.126Z,101403.58
2018-09-21T11:05:31.119Z,101399.40
2018-09-21T11:08:00.181Z,101394.36
2018-09-21T11:10:30.356Z,101399.29
2018-09-21T11:13:00.747Z,101395.34
2018-09-21T11:15:29.699Z,101405.60
2018-09-21T11:17:58.624Z,101396.60
2018-09-21T11:20:27.593Z,101401.72
2018-09-21T11:22:56.516Z,101408.38
2018-09-21T11:25:25.465Z,101406.30
2018-09-21T11:27:54.633Z,101391.30
2018-09-21T11:30:23.566Z,101398.55
2018-09-21T11:32:52.516Z,101393.99
2018-09-21T11:35:21.569Z,101395.05
2018-09-21T11:37:50.528Z,101395.33
2018-09-21T11:40:19.556Z,101393.44
2018-09-21T11:42:48.565Z,101400.33
2018-09-21T11:45:17.643Z,101399.48
2018-09-21T11:47:46.632Z,101393.47
2018-09-21T11:50:16.807Z,101396.77
2018-09-21T11:52:45.723Z,101395.67
2018-09-21T11:55:16.028Z,101400.55
2018-09-21T11:57:45.007Z,101391.89
2018-09-21T12:00:14.012Z,101391.59
2018-09-21T12:02:44.343Z,101395.10
2018-09-21T12:05:13.352Z,101394.61
2018-09-21T12:07:42.318Z,101388.45
2018-09-21T12:10:11.360Z,101386.98
2018-09-21T12:12:40.431Z,101392.52
2018-09-21T12:15:09.512Z,101384.89
2018-09-21T12:17:38.503Z,101372.17
2018-09-21T12:20:07.567Z,101376.94
2018-09-21T12:22:36.627Z,101370.54
2018-09-21T12:25:06.021Z,101365.70
2018-09-21T12:27:35.028Z,101360.11
2018-09-21T12:30:04.013Z,101361.11
2018-09-21T12:32:32.921Z,101358.53
2018-09-21T12:35:01.909Z,101351.56
2018-09-21T12:37:30.866Z,101351.65
2018-09-21T12:39:59.799Z,101348.83
2018-09-21T12:42:28.863Z,101346.55
2018-09-21T12:44:57.866Z,101352.37
2018-09-21T12:47:26.802Z,101351.46
2018-09-21T12:49:55.810Z,101346.82
2018-09-21T12:52:24.829Z,101349.72
2018-09-21T12:54:53.744Z,101354.25
2018-09-21T12:57:24.070Z,101360.58
2018-09-21T12:59:53.052Z,101361.70
2018-09-21T13:02:22.025Z,101356.55
2018-09-21T13:04:51.134Z,101359.05
2018-09-21T13:07:20.087Z,101360.31
2018-09-21T13:09:50.437Z,101349.44
2018-09-21T13:12:19.409Z,101352.61
2018-09-21T13:14:48.384Z,101344.41
2018-09-21T13:17:17.336Z,101343.17
2018-09-21T13:19:46.444Z,101348.34
2018-09-21T13:22:15.374Z,101346.75
2018-09-21T13:24:44.591Z,101350.22
2018-09-21T13:27:13.590Z,101335.16
2018-09-21T13:29:42.685Z,101349.38
2018-09-21T13:32:11.693Z,101345.53
2018-09-21T13:34:40.657Z,101343.42
2018-09-21T13:37:09.671Z,101337.47
2018-09-21T13:39:38.670Z,101337.10
2018-09-21T13:42:07.699Z,101343.44
2018-09-21T13:44:36.627Z,101337.69
2018-09-21T13:47:05.759Z,101340.57
2018-09-21T13:49:34.790Z,101338.48
2018-09-21T13:52:03.913Z,101344.77
2018-09-21T13:54:32.899Z,101343.26
2018-09-21T13:57:01.828Z,101343.48
2018-09-21T13:59:30.768Z,101345.69
2018-09-21T14:01:59.718Z,101342.37
2018-09-21T14:04:28.654Z,101323.10
2018-09-21T14:06:57.576Z,101349.46
2018-09-21T14:09:26.594Z,101345.61
2018-09-21T14:11:55.721Z,101342.78
2018-09-21T14:14:24.895Z,101336.24
2018-09-21T14:16:53.815Z,101331.41
2018-09-21T14:19:23.059Z,101338.58
2018-09-21T14:21:52.189Z,101325.89
2018-09-21T14:24:21.121Z,101333.42
2018-09-21T14:26:50.101Z,101331.26
2018-09-21T14:29:19.010Z,101323.97
2018-09-21T14:31:47.947Z,101331.50
2018-09-21T14:34:18.291Z,101330.41
2018-09-21T14:36:47.237Z,101336.62
2018-09-21T14:39:16.231Z,101339.42
2018-09-21T14:41:46.411Z,101341.52
2018-09-21T14:44:15.322Z,101344.48
2018-09-21T14:46:44.399Z,101336.27
2018-09-21T14:49:14.680Z,101336.80
2018-09-21T14:51:43.690Z,101334.81
2018-09-21T14:54:12.720Z,101341.47
2018-09-21T14:56:41.683Z,101338.82
2018-09-21T14:59:10.630Z,101336.66
2018-09-21T15:01:39.578Z,101337.34
2018-09-21T15:04:08.694Z,101339.02
2018-09-21T15:06:37.644Z,101340.84
2018-09-21T15:09:09.301Z,101333.72
2018-09-21T15:11:38.855Z,101341.82
2018-09-21T15:14:07.906Z,101335.03
2018-09-21T15:16:38.374Z,101332.33
2018-09-21T15:19:07.345Z,101332.83
2018-09-21T15:21:36.274Z,101334.28
2018-09-21T15:24:05.388Z,101329.81
2018-09-21T15:26:34.532Z,101333.44
2018-09-21T15:29:03.537Z,101329.63
2018-09-21T15:31:32.555Z,101331.92
2018-09-21T15:34:01.466Z,101331.92
2018-09-21T15:36:31.735Z,101337.70
2018-09-21T15:39:00.685Z,101332.73
2018-09-21T15:41:29.665Z,101337.20
2018-09-21T15:43:58.652Z,101337.51
2018-09-21T15:46:27.558Z,101332.48
2018-09-21T15:48:56.603Z,101327.80
2018-09-21T15:51:26.825Z,101332.70
2018-09-21T15:53:55.770Z,101331.87
2018-09-21T15:56:24.747Z,101317.44
2018-09-21T15:58:55.149Z,101333.11
2018-09-21T16:01:24.097Z,101329.58
2018-09-21T16:03:54.378Z,101324.11
2018-09-21T16:06:23.305Z,101330.83
2018-09-21T16:08:52.213Z,101328.53
2018-09-21T16:11:21.487Z,101325.16
2018-09-21T16:13:50.439Z,101323.33
2018-09-21T16:16:20.745Z,101317.31
2018-09-21T16:18:49.905Z,101318.70
2018-09-21T16:21:18.917Z,101313.66
2018-09-21T16:23:47.841Z,101320.77
2018-09-21T16:26:18.187Z,101319.07
2018-09-21T16:28:47.103Z,101319.24
2018-09-21T16:31:16.046Z,101312.71
2018-09-21T16:33:46.448Z,101318.73
2018-09-21T16:36:15.494Z,101319.70
2018-09-21T16:38:44.467Z,101322.66
2018-09-21T16:41:13.487Z,101319.53
2018-09-21T16:43:42.390Z,101319.50
2018-09-21T16:46:11.354Z,101320.30
2018-09-21T16:48:40.284Z,101328.27
2018-09-21T16:51:10.515Z,101323.75
2018-09-21T16:53:39.470Z,101338.40
2018-09-21T16:56:09.890Z,101332.48
2018-09-21T16:58:38.819Z,101331.82
2018-09-21T17:01:07.894Z,101334.44
2018-09-21T17:03:38.247Z,101332.27
2018-09-21T17:06:07.221Z,101338.02
2018-09-21T17:08:37.471Z,101339.65
2018-09-21T17:11:06.490Z,101339.97
2018-09-21T17:13:35.452Z,101343.27
2018-09-21T17:16:04.431Z,101346.13
2018-09-21T17:18:33.388Z,101350.71
2018-09-21T17:21:03.617Z,101344.25
2018-09-21T17:23:32.551Z,101347.86
2018-09-21T17:26:01.605Z,101353.06
2018-09-21T17:28:32.099Z,101354.43
2018-09-21T17:31:01.161Z,101352.27
2018-09-21T17:33:30.103Z,101351.09
2018-09-21T17:36:00.431Z,101357.69
2018-09-21T17:38:29.481Z,101351.13
2018-09-21T17:40:58.649Z,101353.02
2018-09-21T17:43:27.642Z,101356.30
2018-09-21T17:45:56.594Z,101352.81
2018-09-21T17:48:25.549Z,101365.41
2018-09-21T17:50:54.567Z,101368.59
2018-09-21T17:53:23.523Z,101370.35
2018-09-21T17:55:52.502Z,101368.33
2018-09-21T17:58:21.524Z,101365.47
2018-09-21T18:00:50.711Z,101365.03
2018-09-21T18:03:19.634Z,101368.29
2018-09-21T18:05:48.644Z,101367.27
2018-09-21T18:08:17.608Z,101371.09
2018-09-21T18:10:46.545Z,101372.58
2018-09-21T18:13:16.884Z,101378.91
2018-09-21T18:15:45.861Z,101383.66
2018-09-21T18:18:14.826Z,101379.29
2018-09-21T18:20:43.735Z,101374.59
2018-09-21T18:23:12.605Z,101374.38
2018-09-21T18:25:41.568Z,101376.05
2018-09-21T18:28:11.880Z,101376.39
2018-09-21T18:30:40.760Z,101378.48
2018-09-21T18:33:09.738Z,101379.80
2018-09-21T18:35:38.779Z,101383.38
2018-09-21T18:38:07.735Z,101374.42
2018-09-21T18:40:36.633Z,101373.84
2018-09-21T18:43:05.731Z,101377.45
2018-09-21T18:45:35.947Z,101379.75
2018-09-21T18:48:04.873Z,101375.05
2018-09-21T18:50:33.861Z,101378.72
2018-09-21T18:53:04.060Z,101381.88
2018-09-21T18:55:33.147Z,101378.84
2018-09-21T18:58:02.179Z,101376.44
2018-09-21T19:00:31.258Z,101373.02
2018-09-21T19:03:00.275Z,101373.16
2018-09-21T19:05:29.189Z,101370.81
2018-09-21T19:07:58.164Z,101376.69
2018-09-21T19:10:27.147Z,101378.78
2018-09-21T19:12:56.151Z,101379.97
2018-09-21T19:15:25.213Z,101382.37
2018-09-21T19:17:55.363Z,101381.11
2018-09-21T19:20:24.233Z,101380.88
2018-09-21T19:22:54.879Z,101381.23
2018-09-21T19:25:23.822Z,101374.50
2018-09-21T19:27:52.761Z,101378.73
2018-09-21T19:30:21.734Z,101378.52
2018-09-21T19:32:50.666Z,101374.58
2018-09-21T19:35:20.978Z,101374.66
2018-09-21T19:37:49.974Z,101371.45
2018-09-21T19:40:18.977Z,101380.41
2018-09-21T19:42:48.032Z,101370.06
2018-09-21T19:45:17.021Z,101375.89
2018-09-21T19:47:45.991Z,101378.88
2018-09-21T19:50:14.898Z,101382.28
2018-09-21T19:52:43.859Z,101383.88
2018-09-21T19:55:12.763Z,101389.25
2018-09-21T19:57:41.689Z,101382.87
2018-09-21T20:00:11.980Z,101373.88
2018-09-21T20:02:40.850Z,101369.84
2018-09-21T20:05:09.768Z,101375.95
2018-09-21T20:07:38.716Z,101369.92
2018-09-21T20:10:07.776Z,101374.07
2018-09-21T20:12:36.711Z,101380.33
2018-09-21T20:15:05.732Z,101369.23
2018-09-21T20:17:34.678Z,101369.16
2018-09-21T20:20:04.925Z,101368.73
2018-09-21T20:22:33.823Z,101367.61
2018-09-21T20:25:02.822Z,101370.05
2018-09-21T20:27:31.785Z,101373.92
2018-09-21T20:30:06.988Z,101362.22
2018-09-21T20:32:41.095Z,101365.27
2018-09-21T20:35:10.052Z,101365.55
2018-09-21T20:37:39.067Z,101367.90
2018-09-21T20:40:09.406Z,101373.36
2018-09-21T20:42:39.619Z,101365.46
2018-09-21T20:45:09.874Z,101370.53
2018-09-21T20:47:38.751Z,101367.06
2018-09-21T20:50:07.735Z,101368.45
2018-09-21T20:52:37.987Z,101360.88
2018-09-21T20:55:07.044Z,101363.23
2018-09-21T20:57:36.004Z,101360.24
2018-09-21T21:00:06.342Z,101364.91
2018-09-21T21:02:35.277Z,101364.47
2018-09-21T21:05:04.268Z,101361.12
2018-09-21T21:07:33.325Z,101358.69
2018-09-21T21:10:02.269Z,101356.49
2018-09-21T21:12:31.239Z,101355.93
2018-09-21T21:15:01.678Z,101356.38
2018-09-21T21:17:30.636Z,101355.37
2018-09-21T21:19:59.622Z,101357.77
2018-09-21T21:22:28.585Z,101360.04
2018-09-21T21:24:57.550Z,101352.67
2018-09-21T21:27:26.527Z,101359.13
2018-09-21T21:29:55.564Z,101355.98
2018-09-21T21:32:24.590Z,101352.98
2018-09-21T21:34:53.526Z,101356.77
2018-09-21T21:37:22.551Z,101356.13
2018-09-21T21:39:51.528Z,101353.22
2018-09-21T21:42:20.387Z,101350.87
2018-09-21T21:44:49.246Z,101347.28
2018-09-21T21:47:18.427Z,101350.79
2018-09-21T21:49:47.331Z,101346.48
2018-09-21T21:52:16.263Z,101346.00
2018-09-21T21:54:45.267Z,101338.26
2018-09-21T21:57:14.245Z,101336.15
2018-09-21T21:59:44.132Z,101324.58
2018-09-21T22:02:13.783Z,101331.16
2018-09-21T22:04:43.058Z,101322.06
2018-09-21T22:07:12.830Z,101326.45
2018-09-21T22:09:43.807Z,101326.33
2018-09-21T22:12:18.346Z,101321.07
2018-09-21T22:14:54.908Z,101323.50
2018-09-21T22:17:27.120Z,101326.69
2018-09-21T22:19:57.029Z,101322.70
2018-09-21T22:22:27.456Z,101332.31
2018-09-21T22:25:00.100Z,101320.86
2018-09-21T22:27:33.795Z,101318.20
2018-09-21T22:30:09.896Z,101318.25
2018-09-21T22:32:44.742Z,101315.80
2018-09-21T22:35:20.024Z,101307.94
2018-09-21T22:37:59.549Z,101310.27
2018-09-21T22:40:28.812Z,101312.42
2018-09-21T22:43:01.685Z,101309.30
2018-09-21T22:45:31.531Z,101310.78
2018-09-21T22:48:00.520Z,101310.30
2018-09-21T22:50:29.439Z,101312.88
2018-09-21T22:53:00.235Z,101308.20
2018-09-21T22:55:29.241Z,101304.36
2018-09-21T22:57:58.133Z,101304.81
2018-09-21T23:00:27.258Z,101298.55
2018-09-21T23:02:56.339Z,101299.09
2018-09-21T23:05:25.206Z,101297.38
2018-09-21T23:07:54.059Z,101300.94
2018-09-21T23:10:23.242Z,101301.30
2018-09-21T23:12:52.155Z,101300.02
2018-09-21T23:15:21.219Z,101307.02
2018-09-21T23:17:50.088Z,101295.72
2018-09-21T23:20:19.027Z,101295.45
2018-09-21T23:22:47.879Z,101291.30
2018-09-21T23:25:16.928Z,101294.80
2018-09-21T23:27:45.804Z,101294.11
2018-09-21T23:30:14.642Z,101290.76
2018-09-21T23:32:43.512Z,101290.33
2018-09-21T23:35:12.402Z,101288.55
2018-09-21T23:37:41.239Z,101284.19
2018-09-21T23:40:10.166Z,101289.89
2018-09-21T23:42:39.258Z,101284.85
2018-09-21T23:45:08.440Z,101282.22
2018-09-21T23:47:37.314Z,101284.59
2018-09-21T23:50:06.290Z,101290.94
2018-09-21T23:52:35.198Z,101291.16
2018-09-21T23:55:04.121Z,101290.25
2018-09-21T23:57:33.132Z,101292.53
